Time;durP1;ratioP1;P1;durP2;ratioP2;P2;SDS_P1;SDS_P2;PMS_P1;PMS_P2;Temp;Humidity;BMP_temperature;BMP_pressure;BME280_temperature;BME280_humidity;BME280_pressure;Samples;Min_cycle;Max_cycle;Signal;HPM_P1;HPM_P2
2021/12/31 00:00:11;;;;;;;18.85;12.73;;;;;;;;;;5011693;28;20014;-36
2021/12/31 00:02:37;;;;;;;24.95;14.05;;;;;;;;;;5011836;28;20112;-39
2021/12/31 00:05:03;;;;;;;17.20;12.50;;;;;;;;;;5011852;28;20026;-39
2021/12/31 00:07:29;;;;;;;22.92;12.40;;;;;;;;;;5011829;28;20037;-39
2021/12/31 00:10:00;;;;;;;21.33;12.85;;;;;;;;;;5011405;28;20119;-38
2021/12/31 00:12:26;;;;;;;21.58;12.77;;;;;;;;;;5011015;28;20026;-38
2021/12/31 00:14:52;;;;;;;20.83;14.10;;;;;;;;;;5031232;28;20563;-38
2021/12/31 00:17:18;;;;;;;24.90;14.68;;;;;;;;;;5031452;28;20120;-38
2021/12/31 00:19:46;;;;;;;24.65;16.55;;;;;;;;;;5031024;28;20704;-38
2021/12/31 00:24:57;;;;;;;27.33;15.63;;;;;;;;;;5031425;28;20033;-38
2021/12/31 00:27:23;;;;;;;27.25;15.68;;;;;;;;;;5027836;28;20112;-38
2021/12/31 00:29:49;;;;;;;29.90;17.20;;;;;;;;;;5011264;28;20161;-38
2021/12/31 00:32:15;;;;;;;28.98;18.08;;;;;;;;;;5011505;28;20030;-38
2021/12/31 00:34:41;;;;;;;33.60;17.73;;;;;;;;;;5011495;28;20037;-39
2021/12/31 00:37:07;;;;;;;30.45;17.92;;;;;;;;;;5011395;28;20065;-38
2021/12/31 00:39:33;;;;;;;41.30;20.98;;;;;;;;;;5011131;28;20454;-40
2021/12/31 00:41:59;;;;;;;33.67;18.13;;;;;;;;;;5011489;28;20058;-39
2021/12/31 00:44:25;;;;;;;36.08;19.58;;;;;;;;;;5011748;28;20488;-38
2021/12/31 00:46:51;;;;;;;42.17;20.15;;;;;;;;;;5030871;28;20025;-38
2021/12/31 00:49:17;;;;;;;35.55;20.30;;;;;;;;;;5034215;28;20056;-40
2021/12/31 00:51:43;;;;;;;39.60;21.38;;;;;;;;;;5035079;28;20029;-39
2021/12/31 00:54:09;;;;;;;38.45;19.77;;;;;;;;;;5035052;28;20033;-38
2021/12/31 00:56:35;;;;;;;43.63;20.48;;;;;;;;;;5034688;28;20032;-36
2021/12/31 00:59:01;;;;;;;37.78;18.52;;;;;;;;;;5034456;28;20692;-39
2021/12/31 01:01:30;;;;;;;34.40;21.48;;;;;;;;;;5018796;28;20026;-39
2021/12/31 01:03:56;;;;;;;35.47;20.20;;;;;;;;;;5015066;28;20040;-39
2021/12/31 01:06:22;;;;;;;42.13;20.98;;;;;;;;;;5014913;28;20037;-39
2021/12/31 01:08:48;;;;;;;38.20;21.00;;;;;;;;;;5015501;28;20062;-39
2021/12/31 01:11:14;;;;;;;44.83;20.90;;;;;;;;;;5018188;28;20045;-39
2021/12/31 01:14:22;;;;;;;32.38;18.70;;;;;;;;;;5034411;28;20025;-39
2021/12/31 01:16:39;;;;;;;44.42;22.55;;;;;;;;;;5011235;28;20109;-38
2021/12/31 01:21:33;;;;;;;39.38;18.83;;;;;;;;;;5014438;28;20499;-38
2021/12/31 01:24:00;;;;;;;35.47;18.33;;;;;;;;;;5014644;28;20380;-39
2021/12/31 01:26:27;;;;;;;36.28;16.50;;;;;;;;;;5014616;28;20029;-39
2021/12/31 01:28:53;;;;;;;31.08;14.75;;;;;;;;;;5014502;28;20025;-39
2021/12/31 01:31:21;;;;;;;24.77;14.25;;;;;;;;;;5014373;28;20482;-39
2021/12/31 01:33:47;;;;;;;31.60;15.55;;;;;;;;;;5005398;28;20088;-38
2021/12/31 01:36:13;;;;;;;33.05;13.65;;;;;;;;;;4994814;28;20027;-38
2021/12/31 01:38:39;;;;;;;25.20;13.52;;;;;;;;;;4994726;28;20106;-38
2021/12/31 01:41:05;;;;;;;25.40;12.10;;;;;;;;;;4994425;28;20049;-38
2021/12/31 01:43:31;;;;;;;34.15;12.43;;;;;;;;;;4994250;28;20034;-38
2021/12/31 01:46:00;;;;;;;26.92;11.90;;;;;;;;;;4994766;28;20069;-38
2021/12/31 01:48:48;;;;;;;22.70;11.48;;;;;;;;;;4994846;28;20050;-39
2021/12/31 01:51:14;;;;;;;27.83;11.50;;;;;;;;;;5016353;28;20587;-39
2021/12/31 01:53:40;;;;;;;21.65;9.85;;;;;;;;;;5033771;28;20036;-38
2021/12/31 01:56:06;;;;;;;30.98;11.43;;;;;;;;;;5033690;28;20037;-42
2021/12/31 01:58:32;;;;;;;28.52;11.70;;;;;;;;;;5033590;28;20030;-39
2021/12/31 02:01:03;;;;;;;27.70;10.90;;;;;;;;;;5028381;28;20101;-39
2021/12/31 02:03:30;;;;;;;30.15;14.30;;;;;;;;;;5033594;28;20045;-38
2021/12/31 02:05:56;;;;;;;20.33;11.63;;;;;;;;;;5027075;28;20054;-39
2021/12/31 02:08:22;;;;;;;26.80;11.07;;;;;;;;;;4994402;28;20061;-38
2021/12/31 02:10:51;;;;;;;23.75;11.07;;;;;;;;;;4994091;28;20041;-39
2021/12/31 02:13:18;;;;;;;25.25;11.10;;;;;;;;;;4994247;28;20022;-39
2021/12/31 02:15:44;;;;;;;25.35;11.20;;;;;;;;;;5019531;28;20033;-39
2021/12/31 02:18:11;;;;;;;26.95;11.88;;;;;;;;;;5032452;28;20491;-41
2021/12/31 02:20:41;;;;;;;22.05;11.05;;;;;;;;;;5032159;28;20489;-40
2021/12/31 02:23:13;;;;;;;19.17;11.98;;;;;;;;;;5023300;28;20030;-40
2021/12/31 02:25:39;;;;;;;22.80;12.10;;;;;;;;;;5032311;28;20018;-41
2021/12/31 02:28:06;;;;;;;25.00;11.93;;;;;;;;;;5014965;28;20461;-41
2021/12/31 02:30:32;;;;;;;35.42;12.73;;;;;;;;;;5013418;28;20049;-41
2021/12/31 02:32:59;;;;;;;26.42;11.90;;;;;;;;;;5000561;28;20453;-40
2021/12/31 02:35:25;;;;;;;27.92;11.82;;;;;;;;;;5009218;28;20037;-41
2021/12/31 02:37:51;;;;;;;22.23;12.02;;;;;;;;;;5004788;28;20038;-41
2021/12/31 02:40:18;;;;;;;26.65;12.73;;;;;;;;;;5007436;28;20026;-41
2021/12/31 02:42:45;;;;;;;20.63;12.25;;;;;;;;;;5010242;28;20036;-40
2021/12/31 02:45:12;;;;;;;26.90;12.60;;;;;;;;;;4993760;28;20533;-40
2021/12/31 02:47:43;;;;;;;25.88;13.18;;;;;;;;;;5013119;28;20457;-40
2021/12/31 02:50:12;;;;;;;25.92;14.57;;;;;;;;;;5013004;28;20030;-40
2021/12/31 02:52:38;;;;;;;22.80;13.45;;;;;;;;;;5018620;28;20033;-41
2021/12/31 02:55:04;;;;;;;35.53;12.85;;;;;;;;;;5026262;28;20061;-41
2021/12/31 02:57:30;;;;;;;30.58;14.30;;;;;;;;;;5013094;28;20072;-40
2021/12/31 02:59:56;;;;;;;22.00;12.80;;;;;;;;;;5017755;28;20061;-40
2021/12/31 03:02:25;;;;;;;20.95;12.60;;;;;;;;;;5032712;28;20092;-41
2021/12/31 03:04:52;;;;;;;33.03;13.32;;;;;;;;;;5032615;28;20032;-40
2021/12/31 03:07:19;;;;;;;22.08;11.45;;;;;;;;;;4996758;28;20543;-39
2021/12/31 03:09:48;;;;;;;23.50;13.57;;;;;;;;;;4992835;28;20034;-40
2021/12/31 03:12:15;;;;;;;20.70;10.80;;;;;;;;;;4993354;28;20018;-40
2021/12/31 03:14:43;;;;;;;26.77;11.25;;;;;;;;;;4993465;28;20516;-41
2021/12/31 03:17:09;;;;;;;21.77;11.45;;;;;;;;;;4993021;28;20075;-40
2021/12/31 03:19:35;;;;;;;27.60;9.93;;;;;;;;;;4995799;28;20030;-41
2021/12/31 03:22:01;;;;;;;23.58;9.70;;;;;;;;;;4995391;28;20476;-40
2021/12/31 03:24:27;;;;;;;24.60;8.93;;;;;;;;;;5014035;28;20036;-40
2021/12/31 03:26:53;;;;;;;24.42;10.10;;;;;;;;;;5019655;28;20033;-41
2021/12/31 03:29:19;;;;;;;22.20;9.15;;;;;;;;;;5012414;28;20032;-40
2021/12/31 03:31:45;;;;;;;17.63;10.23;;;;;;;;;;4995058;28;20432;-41
2021/12/31 03:34:13;;;;;;;25.50;10.93;;;;;;;;;;5004719;28;20080;-40
2021/12/31 03:36:39;;;;;;;21.00;10.32;;;;;;;;;;4995811;28;20141;-40
2021/12/31 03:39:05;;;;;;;23.67;11.23;;;;;;;;;;5007673;28;20022;-40
2021/12/31 03:41:32;;;;;;;24.38;10.13;;;;;;;;;;5002975;28;20121;-41
2021/12/31 03:43:58;;;;;;;25.65;9.73;;;;;;;;;;5016296;28;20037;-40
2021/12/31 03:46:24;;;;;;;24.27;9.60;;;;;;;;;;5014152;28;20064;-40
2021/12/31 03:48:50;;;;;;;13.52;8.15;;;;;;;;;;5031619;28;20056;-40
2021/12/31 03:51:16;;;;;;;17.52;8.30;;;;;;;;;;5031759;28;20681;-44
2021/12/31 03:53:42;;;;;;;26.38;8.30;;;;;;;;;;5032088;28;20026;-41
2021/12/31 03:56:08;;;;;;;19.08;7.32;;;;;;;;;;5032611;28;20076;-41
2021/12/31 03:58:34;;;;;;;24.27;7.53;;;;;;;;;;5031863;28;20104;-41
2021/12/31 04:01:00;;;;;;;15.77;6.35;;;;;;;;;;5027505;28;20541;-43
2021/12/31 04:03:26;;;;;;;22.98;6.28;;;;;;;;;;5032274;28;20025;-40
2021/12/31 04:05:53;;;;;;;14.85;5.68;;;;;;;;;;5032307;28;20034;-41
2021/12/31 04:08:19;;;;;;;13.32;6.32;;;;;;;;;;5031560;28;20021;-41
2021/12/31 04:10:45;;;;;;;17.55;5.55;;;;;;;;;;5031143;28;20029;-41
2021/12/31 04:13:11;;;;;;;15.63;5.38;;;;;;;;;;5031516;28;20408;-41
2021/12/31 04:15:37;;;;;;;10.82;4.88;;;;;;;;;;5031538;28;20060;-41
2021/12/31 04:18:03;;;;;;;8.18;4.85;;;;;;;;;;5025480;28;20060;-41
2021/12/31 04:20:49;;;;;;;19.10;4.80;;;;;;;;;;5019554;28;20380;-41
2021/12/31 04:23:26;;;;;;;15.70;4.90;;;;;;;;;;5030304;28;20025;-40
2021/12/31 04:25:53;;;;;;;15.30;4.78;;;;;;;;;;5031357;28;20048;-41
2021/12/31 04:28:19;;;;;;;11.35;4.20;;;;;;;;;;5031349;28;20027;-41
2021/12/31 04:30:45;;;;;;;17.23;4.50;;;;;;;;;;5027897;28;20408;-42
2021/12/31 04:33:11;;;;;;;9.70;4.10;;;;;;;;;;5022145;28;20478;-41
2021/12/31 04:35:37;;;;;;;17.08;5.10;;;;;;;;;;5031375;28;20120;-42
2021/12/31 04:38:03;;;;;;;13.48;4.43;;;;;;;;;;5031030;28;20060;-41
2021/12/31 04:40:29;;;;;;;13.70;4.35;;;;;;;;;;5031055;28;20072;-41
2021/12/31 04:42:55;;;;;;;16.20;4.78;;;;;;;;;;5031057;28;20049;-41
2021/12/31 04:45:21;;;;;;;15.63;4.30;;;;;;;;;;5031183;28;20026;-41
2021/12/31 04:47:47;;;;;;;8.95;4.18;;;;;;;;;;5031116;28;20457;-40
2021/12/31 04:50:14;;;;;;;12.00;4.82;;;;;;;;;;5014017;28;20034;-41
2021/12/31 04:52:40;;;;;;;10.02;4.55;;;;;;;;;;5012024;28;20063;-40
2021/12/31 04:55:06;;;;;;;18.20;5.05;;;;;;;;;;5002088;28;20030;-40
2021/12/31 04:57:32;;;;;;;11.90;4.18;;;;;;;;;;4991478;28;20032;-41
2021/12/31 04:59:59;;;;;;;14.70;4.30;;;;;;;;;;5001375;28;20030;-40
2021/12/31 05:02:25;;;;;;;16.60;4.35;;;;;;;;;;4998627;28;20080;-41
2021/12/31 05:04:51;;;;;;;9.98;4.40;;;;;;;;;;5011272;28;20092;-40
2021/12/31 05:07:17;;;;;;;15.57;4.03;;;;;;;;;;5004773;28;20469;-40
2021/12/31 05:09:43;;;;;;;15.05;3.80;;;;;;;;;;4991399;28;20031;-39
2021/12/31 05:12:14;;;;;;;12.88;4.30;;;;;;;;;;4974423;28;20081;-38
2021/12/31 05:14:40;;;;;;;19.48;5.32;;;;;;;;;;4991560;28;20026;-39
2021/12/31 05:17:06;;;;;;;15.77;4.00;;;;;;;;;;4991683;28;20038;-39
2021/12/31 05:19:32;;;;;;;11.88;3.95;;;;;;;;;;5009146;28;20060;-40
2021/12/31 05:21:58;;;;;;;18.08;4.70;;;;;;;;;;5030691;28;20052;-42
2021/12/31 05:24:24;;;;;;;19.45;6.88;;;;;;;;;;5023304;28;20025;-41
2021/12/31 05:26:50;;;;;;;16.05;6.72;;;;;;;;;;5030877;28;20064;-39
2021/12/31 05:29:16;;;;;;;22.02;6.82;;;;;;;;;;5030383;28;20083;-41
2021/12/31 05:31:42;;;;;;;14.85;6.47;;;;;;;;;;5030876;28;20380;-40
2021/12/31 05:34:08;;;;;;;12.52;5.57;;;;;;;;;;5032166;28;20037;-40
2021/12/31 05:36:34;;;;;;;15.95;6.30;;;;;;;;;;5034136;28;20021;-40
2021/12/31 05:39:00;;;;;;;10.10;4.90;;;;;;;;;;5028995;28;20353;-40
2021/12/31 05:41:28;;;;;;;28.42;7.32;;;;;;;;;;4997160;28;20026;-39
2021/12/31 05:43:54;;;;;;;15.23;5.53;;;;;;;;;;5029698;28;20064;-40
2021/12/31 05:46:20;;;;;;;14.60;6.07;;;;;;;;;;5013605;28;20052;-41
2021/12/31 05:48:46;;;;;;;11.32;5.30;;;;;;;;;;5000900;28;20102;-39
2021/12/31 05:51:12;;;;;;;9.60;5.88;;;;;;;;;;5005369;28;20029;-39
2021/12/31 05:53:38;;;;;;;21.08;7.50;;;;;;;;;;5013594;28;20080;-39
2021/12/31 05:56:04;;;;;;;17.58;7.18;;;;;;;;;;5010722;28;20385;-38
2021/12/31 05:58:30;;;;;;;16.40;8.00;;;;;;;;;;5012594;28;20140;-38
2021/12/31 06:00:56;;;;;;;13.63;7.47;;;;;;;;;;4996930;28;20467;-38
2021/12/31 06:03:22;;;;;;;20.85;9.18;;;;;;;;;;5003938;28;20030;-39
2021/12/31 06:05:50;;;;;;;17.55;8.48;;;;;;;;;;4994310;28;20370;-39
2021/12/31 06:08:16;;;;;;;19.67;7.95;;;;;;;;;;5006165;28;20022;-40
2021/12/31 06:10:42;;;;;;;16.30;9.45;;;;;;;;;;4996494;28;20037;-39
2021/12/31 06:13:08;;;;;;;14.00;9.23;;;;;;;;;;5026196;28;20079;-40
2021/12/31 06:15:34;;;;;;;14.25;10.35;;;;;;;;;;5033160;28;20025;-38
2021/12/31 06:18:00;;;;;;;15.70;9.38;;;;;;;;;;5033364;28;20032;-39
2021/12/31 06:20:28;;;;;;;20.88;10.02;;;;;;;;;;5033041;28;20029;-38
2021/12/31 06:22:55;;;;;;;22.55;11.35;;;;;;;;;;5033242;28;20021;-39
2021/12/31 06:25:21;;;;;;;23.48;10.60;;;;;;;;;;5033096;28;20029;-38
2021/12/31 06:27:47;;;;;;;22.23;11.18;;;;;;;;;;5033167;28;20017;-39
2021/12/31 06:30:13;;;;;;;23.15;11.32;;;;;;;;;;5024761;28;20036;-39
2021/12/31 06:32:39;;;;;;;19.65;10.98;;;;;;;;;;5033433;28;20030;-40
2021/12/31 06:35:05;;;;;;;19.67;11.20;;;;;;;;;;5033032;28;20059;-40
2021/12/31 06:37:31;;;;;;;16.30;10.15;;;;;;;;;;5032980;28;20075;-39
2021/12/31 06:40:03;;;;;;;20.00;10.65;;;;;;;;;;5032812;28;20014;-39
2021/12/31 06:42:29;;;;;;;14.23;10.25;;;;;;;;;;5033142;28;20457;-39
2021/12/31 06:44:55;;;;;;;20.05;9.35;;;;;;;;;;5028175;28;20060;-39
2021/12/31 06:47:21;;;;;;;21.17;10.52;;;;;;;;;;5012622;28;20018;-39
2021/12/31 06:49:47;;;;;;;20.80;9.80;;;;;;;;;;5012880;28;20076;-39
2021/12/31 06:52:12;;;;;;;11.95;8.70;;;;;;;;;;5013408;28;20105;-41
2021/12/31 06:54:38;;;;;;;12.40;9.40;;;;;;;;;;5013117;28;20338;-41
2021/12/31 06:57:05;;;;;;;14.52;9.02;;;;;;;;;;5012807;28;20030;-41
2021/12/31 06:59:31;;;;;;;15.07;9.65;;;;;;;;;;5012663;28;20045;-39
2021/12/31 07:01:57;;;;;;;17.92;8.10;;;;;;;;;;5021022;28;20053;-38
2021/12/31 07:04:24;;;;;;;13.20;7.93;;;;;;;;;;5032344;28;20048;-39
2021/12/31 07:06:50;;;;;;;12.65;7.57;;;;;;;;;;5031677;28;20057;-42
2021/12/31 07:09:16;;;;;;;17.58;7.95;;;;;;;;;;5011367;28;20030;-39
2021/12/31 07:11:42;;;;;;;16.75;7.53;;;;;;;;;;5007863;28;20044;-40
2021/12/31 07:14:08;;;;;;;11.35;6.70;;;;;;;;;;4996370;28;20187;-40
2021/12/31 07:16:34;;;;;;;17.55;6.13;;;;;;;;;;5000389;28;20061;-37
2021/12/31 07:19:00;;;;;;;15.27;6.75;;;;;;;;;;5009764;28;20058;-38
2021/12/31 07:21:26;;;;;;;11.30;5.82;;;;;;;;;;5011762;28;20034;-37
2021/12/31 07:23:52;;;;;;;12.20;6.55;;;;;;;;;;5017985;28;20025;-38
2021/12/31 07:26:18;;;;;;;11.20;6.80;;;;;;;;;;5016370;28;20022;-39
2021/12/31 07:28:44;;;;;;;10.77;6.82;;;;;;;;;;5009071;28;20024;-39
2021/12/31 07:31:12;;;;;;;13.60;6.80;;;;;;;;;;5004209;28;20030;-39
2021/12/31 07:33:39;;;;;;;9.93;6.78;;;;;;;;;;4994574;28;20073;-39
2021/12/31 07:36:05;;;;;;;13.05;6.20;;;;;;;;;;5000048;28;20030;-38
2021/12/31 07:38:34;;;;;;;12.38;6.20;;;;;;;;;;5000041;28;20022;-37
2021/12/31 07:41:01;;;;;;;12.45;6.13;;;;;;;;;;4998481;28;20057;-39
2021/12/31 07:43:27;;;;;;;14.90;5.97;;;;;;;;;;5003774;28;20045;-40
2021/12/31 07:45:54;;;;;;;12.13;5.45;;;;;;;;;;5016591;28;20051;-39
2021/12/31 07:48:21;;;;;;;12.85;5.47;;;;;;;;;;5010624;28;20065;-38
2021/12/31 07:50:47;;;;;;;7.28;4.82;;;;;;;;;;5025734;28;20071;-37
2021/12/31 07:53:13;;;;;;;8.82;5.60;;;;;;;;;;5018577;28;20483;-38
2021/12/31 07:55:39;;;;;;;8.75;5.88;;;;;;;;;;5011359;28;20038;-38
2021/12/31 07:58:06;;;;;;;9.93;5.55;;;;;;;;;;4992874;28;20061;-37
2021/12/31 08:00:32;;;;;;;14.43;5.63;;;;;;;;;;5025912;28;20025;-38
2021/12/31 08:02:58;;;;;;;12.35;5.20;;;;;;;;;;5016066;28;20025;-38
2021/12/31 08:05:25;;;;;;;8.30;4.72;;;;;;;;;;5030868;28;20067;-39
2021/12/31 08:07:51;;;;;;;12.93;5.32;;;;;;;;;;4999126;28;20106;-37
2021/12/31 08:10:18;;;;;;;9.43;4.95;;;;;;;;;;5002720;28;20069;-38
2021/12/31 08:12:44;;;;;;;9.70;4.63;;;;;;;;;;5005051;28;20159;-39
2021/12/31 08:15:10;;;;;;;13.15;5.07;;;;;;;;;;5007056;28;20021;-39
2021/12/31 08:17:36;;;;;;;9.00;4.60;;;;;;;;;;5001512;28;20058;-39
2021/12/31 08:20:02;;;;;;;7.22;4.35;;;;;;;;;;4991327;28;20053;-38
2021/12/31 08:22:28;;;;;;;7.30;4.10;;;;;;;;;;5011860;28;20061;-37
2021/12/31 08:24:54;;;;;;;10.40;4.05;;;;;;;;;;5007076;28;20065;-37
2021/12/31 08:27:20;;;;;;;9.77;4.97;;;;;;;;;;5013885;28;20068;-40
2021/12/31 08:29:46;;;;;;;9.18;4.75;;;;;;;;;;5010458;28;20072;-38
2021/12/31 08:32:12;;;;;;;16.80;5.53;;;;;;;;;;5012396;28;20032;-38
2021/12/31 08:34:38;;;;;;;8.63;3.95;;;;;;;;;;5014738;28;20057;-38
2021/12/31 08:37:04;;;;;;;8.27;4.15;;;;;;;;;;5002008;28;20370;-39
2021/12/31 08:39:30;;;;;;;6.30;4.00;;;;;;;;;;5008350;28;20143;-37
2021/12/31 08:41:57;;;;;;;7.22;3.63;;;;;;;;;;5007405;28;20026;-38
2021/12/31 08:44:23;;;;;;;7.68;3.88;;;;;;;;;;5018715;28;20069;-37
2021/12/31 08:46:49;;;;;;;7.68;3.65;;;;;;;;;;5011716;28;20494;-36
2021/12/31 08:49:15;;;;;;;7.75;3.60;;;;;;;;;;4981737;28;20041;-39
2021/12/31 08:51:41;;;;;;;8.27;2.85;;;;;;;;;;5026392;28;20037;-38
2021/12/31 08:54:07;;;;;;;8.13;3.75;;;;;;;;;;5016498;28;20018;-38
2021/12/31 08:56:33;;;;;;;9.57;3.53;;;;;;;;;;5003992;28;20027;-38
2021/12/31 08:58:59;;;;;;;13.18;5.07;;;;;;;;;;4990521;28;20018;-35
2021/12/31 09:01:25;;;;;;;4.38;3.20;;;;;;;;;;4990480;28;20030;-38
2021/12/31 09:03:52;;;;;;;15.93;3.25;;;;;;;;;;5008280;28;20022;-37
2021/12/31 09:06:19;;;;;;;7.63;3.63;;;;;;;;;;5015887;28;20018;-35
2021/12/31 09:08:45;;;;;;;4.60;3.15;;;;;;;;;;5003839;28;20065;-38
2021/12/31 09:11:11;;;;;;;11.57;3.28;;;;;;;;;;5000944;28;20070;-37
2021/12/31 09:13:37;;;;;;;3.92;2.78;;;;;;;;;;5025708;28;20033;-39
2021/12/31 09:16:04;;;;;;;4.32;2.72;;;;;;;;;;4999744;28;20029;-39
2021/12/31 09:18:30;;;;;;;7.22;3.50;;;;;;;;;;5018440;28;20452;-40
2021/12/31 09:20:56;;;;;;;7.50;3.70;;;;;;;;;;5004301;28;20080;-38
2021/12/31 09:23:22;;;;;;;10.85;4.57;;;;;;;;;;5016464;28;20460;-38
2021/12/31 09:25:49;;;;;;;8.27;3.42;;;;;;;;;;5009986;28;20065;-39
2021/12/31 09:28:16;;;;;;;10.82;3.53;;;;;;;;;;4994537;28;20441;-38
2021/12/31 09:30:42;;;;;;;7.63;3.38;;;;;;;;;;5004497;28;20363;-36
2021/12/31 09:33:08;;;;;;;10.77;3.53;;;;;;;;;;5020319;28;20056;-36
2021/12/31 09:35:34;;;;;;;6.53;3.20;;;;;;;;;;5028475;28;20069;-36
2021/12/31 09:38:00;;;;;;;3.92;2.95;;;;;;;;;;4994332;28;20037;-40
2021/12/31 09:40:27;;;;;;;5.72;3.15;;;;;;;;;;4996010;28;20480;-38
2021/12/31 09:43:08;;;;;;;8.70;3.10;;;;;;;;;;5025819;28;20487;-36
2021/12/31 09:45:35;;;;;;;8.45;3.15;;;;;;;;;;5000232;28;20022;-40
2021/12/31 09:48:01;;;;;;;3.95;3.03;;;;;;;;;;5002041;28;20940;-38
2021/12/31 09:50:27;;;;;;;7.80;3.15;;;;;;;;;;4992005;28;20073;-40
2021/12/31 09:52:54;;;;;;;4.65;2.83;;;;;;;;;;4994887;28;20037;-40
2021/12/31 09:55:39;;;;;;;7.15;2.88;;;;;;;;;;4975676;28;20120;-41
2021/12/31 09:58:06;;;;;;;8.25;3.70;;;;;;;;;;5000629;28;20050;-40
2021/12/31 10:00:32;;;;;;;7.75;3.70;;;;;;;;;;5005831;28;20470;-38
2021/12/31 10:03:10;;;;;;;23.05;10.15;;;;;;;;;;5022311;28;20388;-38
2021/12/31 10:05:41;;;;;;;8.20;3.78;;;;;;;;;;4994411;28;20354;-40
2021/12/31 10:08:14;;;;;;;18.58;8.85;;;;;;;;;;4993520;28;20030;-38
2021/12/31 10:10:40;;;;;;;32.35;13.38;;;;;;;;;;5001775;28;20033;-41
2021/12/31 10:13:07;;;;;;;7.28;3.78;;;;;;;;;;5008444;28;20037;-37
2021/12/31 10:15:38;;;;;;;7.95;2.83;;;;;;;;;;5010684;28;20026;-37
2021/12/31 10:18:15;;;;;;;12.32;3.30;;;;;;;;;;4993639;28;20057;-37
2021/12/31 10:20:48;;;;;;;7.57;4.05;;;;;;;;;;5006551;28;20077;-37
2021/12/31 10:23:15;;;;;;;8.45;4.07;;;;;;;;;;5027571;28;20377;-38
2021/12/31 10:25:41;;;;;;;12.23;4.93;;;;;;;;;;5003358;28;20026;-38
2021/12/31 10:28:11;;;;;;;11.38;4.35;;;;;;;;;;5005042;28;20018;-40
2021/12/31 10:30:37;;;;;;;6.55;2.97;;;;;;;;;;5015824;28;20385;-37
2021/12/31 10:33:03;;;;;;;6.57;2.90;;;;;;;;;;5002661;28;20041;-40
2021/12/31 10:35:37;;;;;;;7.13;3.10;;;;;;;;;;5026424;28;20029;-39
2021/12/31 10:38:06;;;;;;;5.85;2.85;;;;;;;;;;5012007;28;20045;-38
2021/12/31 10:40:33;;;;;;;6.47;2.85;;;;;;;;;;5003677;28;20652;-38
2021/12/31 10:43:15;;;;;;;7.95;2.70;;;;;;;;;;5000219;28;20023;-37
2021/12/31 10:45:54;;;;;;;6.20;2.92;;;;;;;;;;4993838;28;20023;-38
2021/12/31 10:48:21;;;;;;;9.27;2.80;;;;;;;;;;4997493;28;20033;-43
2021/12/31 10:50:53;;;;;;;6.15;3.33;;;;;;;;;;5010075;28;20025;-39
2021/12/31 10:53:33;;;;;;;7.50;2.60;;;;;;;;;;5030281;28;20041;-37
2021/12/31 10:56:25;;;;;;;6.68;3.10;;;;;;;;;;4994935;28;20378;-40
2021/12/31 10:58:59;;;;;;;4.45;2.40;;;;;;;;;;5001553;28;20069;-39
2021/12/31 11:01:25;;;;;;;7.22;2.70;;;;;;;;;;5008624;28;20026;-38
2021/12/31 11:03:52;;;;;;;7.57;2.50;;;;;;;;;;5006782;28;20080;-38
2021/12/31 11:06:18;;;;;;;6.75;2.60;;;;;;;;;;4997679;28;20054;-41
2021/12/31 11:08:45;;;;;;;8.40;2.42;;;;;;;;;;5007536;28;20022;-38
2021/12/31 11:11:13;;;;;;;7.15;2.88;;;;;;;;;;5019470;28;20026;-37
2021/12/31 11:13:39;;;;;;;12.63;3.03;;;;;;;;;;5008529;28;20046;-39
2021/12/31 11:16:05;;;;;;;11.70;2.83;;;;;;;;;;5011097;28;20026;-38
2021/12/31 11:18:31;;;;;;;7.32;3.47;;;;;;;;;;5012766;28;20030;-38
2021/12/31 11:20:59;;;;;;;8.38;2.72;;;;;;;;;;4998146;28;20090;-37
2021/12/31 11:23:29;;;;;;;8.52;2.97;;;;;;;;;;5009910;28;20389;-39
2021/12/31 11:25:58;;;;;;;6.13;2.63;;;;;;;;;;4986342;28;20022;-40
2021/12/31 11:28:32;;;;;;;5.38;2.33;;;;;;;;;;4996902;28;20054;-38
2021/12/31 11:31:18;;;;;;;6.78;2.45;;;;;;;;;;5003087;28;20079;-39
2021/12/31 11:33:45;;;;;;;5.20;2.80;;;;;;;;;;4993771;28;20034;-37
2021/12/31 11:36:13;;;;;;;6.75;2.75;;;;;;;;;;5017431;28;20029;-37
2021/12/31 11:38:40;;;;;;;7.80;2.63;;;;;;;;;;5031896;28;20393;-38
2021/12/31 11:41:08;;;;;;;5.50;2.47;;;;;;;;;;5008020;28;20049;-40
2021/12/31 11:43:38;;;;;;;5.30;2.40;;;;;;;;;;4994338;28;20030;-38
2021/12/31 11:46:15;;;;;;;8.20;3.22;;;;;;;;;;4992822;28;20038;-36
2021/12/31 11:51:13;;;;;;;10.98;2.67;;;;;;;;;;5021134;28;20467;-38
2021/12/31 11:53:58;;;;;;;4.50;2.70;;;;;;;;;;5007563;28;20045;-36
2021/12/31 11:56:45;;;;;;;7.72;3.30;;;;;;;;;;5004597;28;20027;-40
2021/12/31 11:59:14;;;;;;;7.47;3.25;;;;;;;;;;4999679;28;20022;-39
2021/12/31 12:01:46;;;;;;;7.90;3.40;;;;;;;;;;5024324;28;20025;-37
2021/12/31 12:04:19;;;;;;;11.77;3.08;;;;;;;;;;5013630;28;20351;-39
2021/12/31 12:06:55;;;;;;;5.60;2.80;;;;;;;;;;4995025;28;20061;-39
2021/12/31 12:09:21;;;;;;;6.40;3.03;;;;;;;;;;5008103;28;20112;-37
2021/12/31 12:12:03;;;;;;;9.55;3.00;;;;;;;;;;5002352;28;20034;-39
2021/12/31 12:14:29;;;;;;;7.72;3.55;;;;;;;;;;5006694;28;20083;-39
2021/12/31 12:16:56;;;;;;;8.45;3.30;;;;;;;;;;5011941;28;20424;-40
2021/12/31 12:19:22;;;;;;;8.00;3.17;;;;;;;;;;5009153;28;20401;-40
2021/12/31 12:21:52;;;;;;;6.53;3.30;;;;;;;;;;5017415;28;20029;-39
2021/12/31 12:24:24;;;;;;;15.50;4.40;;;;;;;;;;5009908;28;20030;-42
2021/12/31 12:26:50;;;;;;;7.30;3.30;;;;;;;;;;4992397;28;20080;-39
2021/12/31 12:29:26;;;;;;;4.97;2.80;;;;;;;;;;5004767;28;20030;-38
2021/12/31 12:32:11;;;;;;;8.10;3.17;;;;;;;;;;5010849;28;20105;-35
2021/12/31 12:34:37;;;;;;;8.27;3.50;;;;;;;;;;5008714;28;20049;-39
2021/12/31 12:37:03;;;;;;;8.82;4.70;;;;;;;;;;4995647;28;20477;-39
2021/12/31 12:39:30;;;;;;;10.63;4.07;;;;;;;;;;5004977;28;20085;-37
2021/12/31 12:41:56;;;;;;;9.27;4.80;;;;;;;;;;4993751;28;20042;-38
2021/12/31 12:44:22;;;;;;;11.57;3.78;;;;;;;;;;5012739;28;20068;-37
2021/12/31 12:46:52;;;;;;;10.65;4.18;;;;;;;;;;5019926;28;20057;-38
2021/12/31 12:49:18;;;;;;;8.55;4.35;;;;;;;;;;5016070;28;20164;-38
2021/12/31 12:51:46;;;;;;;13.50;4.25;;;;;;;;;;5019718;28;20033;-38
2021/12/31 12:54:17;;;;;;;8.98;5.05;;;;;;;;;;5033201;28;20029;-38
2021/12/31 12:56:43;;;;;;;9.48;4.60;;;;;;;;;;5025002;28;20025;-39
2021/12/31 12:59:10;;;;;;;14.23;4.13;;;;;;;;;;5024869;28;20021;-38
2021/12/31 13:01:37;;;;;;;8.93;3.42;;;;;;;;;;5006686;28;20080;-38
2021/12/31 13:04:03;;;;;;;6.00;3.92;;;;;;;;;;5014106;28;20045;-39
2021/12/31 13:06:29;;;;;;;7.38;3.38;;;;;;;;;;4998846;28;20026;-39
2021/12/31 13:09:03;;;;;;;11.90;4.85;;;;;;;;;;4999014;28;20022;-38
2021/12/31 13:11:29;;;;;;;6.93;3.22;;;;;;;;;;5007944;28;20014;-38
2021/12/31 13:13:55;;;;;;;6.03;3.33;;;;;;;;;;5009835;28;20061;-39
2021/12/31 13:16:21;;;;;;;5.78;3.65;;;;;;;;;;5014064;28;20068;-41
2021/12/31 13:18:55;;;;;;;9.02;3.72;;;;;;;;;;5012633;28;20053;-38
2021/12/31 13:21:22;;;;;;;7.03;2.97;;;;;;;;;;5008128;28;20498;-38
2021/12/31 13:23:52;;;;;;;9.32;3.92;;;;;;;;;;4997082;28;20056;-38
2021/12/31 13:26:38;;;;;;;7.15;3.13;;;;;;;;;;5004165;28;20018;-40
2021/12/31 13:29:05;;;;;;;5.78;3.75;;;;;;;;;;5006926;28;20096;-39
2021/12/31 13:31:33;;;;;;;7.90;3.55;;;;;;;;;;4999597;28;20072;-39
2021/12/31 13:34:10;;;;;;;6.50;3.22;;;;;;;;;;5002229;28;20675;-39
2021/12/31 13:36:43;;;;;;;5.22;3.40;;;;;;;;;;4982883;28;20034;-39
2021/12/31 13:39:13;;;;;;;5.43;3.45;;;;;;;;;;5015025;28;20069;-38
2021/12/31 13:42:00;;;;;;;9.30;3.50;;;;;;;;;;5032175;28;20129;-38
2021/12/31 13:44:28;;;;;;;11.68;4.22;;;;;;;;;;5033995;28;20025;-40
2021/12/31 13:47:21;;;;;;;9.05;4.10;;;;;;;;;;5034463;28;20029;-39
2021/12/31 13:49:49;;;;;;;6.72;3.22;;;;;;;;;;5021382;28;20038;-41
2021/12/31 13:52:21;;;;;;;6.18;3.65;;;;;;;;;;4995001;28;20034;-38
2021/12/31 13:54:47;;;;;;;11.73;4.43;;;;;;;;;;5023267;28;20033;-38
2021/12/31 13:57:32;;;;;;;6.72;3.28;;;;;;;;;;5007706;28;20026;-39
2021/12/31 14:00:07;;;;;;;10.27;4.63;;;;;;;;;;5026614;28;20131;-39
2021/12/31 14:02:33;;;;;;;9.70;4.68;;;;;;;;;;4997750;28;20030;-39
2021/12/31 14:05:00;;;;;;;8.02;4.60;;;;;;;;;;5000978;28;20037;-38
2021/12/31 14:07:52;;;;;;;12.75;4.88;;;;;;;;;;5013827;28;20588;-40
2021/12/31 14:10:31;;;;;;;7.70;5.60;;;;;;;;;;5013173;28;20114;-39
2021/12/31 14:13:05;;;;;;;18.10;5.93;;;;;;;;;;4999565;28;20041;-40
2021/12/31 14:15:35;;;;;;;12.35;6.18;;;;;;;;;;5004451;28;20073;-39
2021/12/31 14:18:02;;;;;;;18.27;7.00;;;;;;;;;;4976019;28;20389;-38
2021/12/31 14:20:32;;;;;;;14.68;8.20;;;;;;;;;;5015074;28;20025;-38
2021/12/31 14:22:58;;;;;;;13.07;8.50;;;;;;;;;;5014403;28;20064;-38
2021/12/31 14:25:25;;;;;;;10.63;8.27;;;;;;;;;;5016447;28;20029;-38
2021/12/31 14:27:52;;;;;;;19.30;9.85;;;;;;;;;;4993449;28;20651;-38
2021/12/31 14:30:18;;;;;;;19.10;10.30;;;;;;;;;;5011628;28;20050;-38
2021/12/31 14:32:44;;;;;;;23.83;11.85;;;;;;;;;;5012815;28;20031;-38
2021/12/31 14:35:13;;;;;;;19.23;10.15;;;;;;;;;;5011087;28;20056;-38
2021/12/31 14:37:41;;;;;;;23.17;11.23;;;;;;;;;;5002878;28;20433;-38
2021/12/31 14:40:13;;;;;;;15.68;10.77;;;;;;;;;;5009993;28;20022;-38
2021/12/31 14:42:39;;;;;;;20.95;11.85;;;;;;;;;;5014686;28;20022;-37